6R3

Cleveland Municipal Airport

Cleveland, Texas, USA
METAR K6R3 211755Z AUTO 19003KT 7SM BKN009 28/25 A2996 RMK AO2 LTG DSNT S 60019 T02800246 10281 20236
Observed Flight Rules
Jun-21 @ 17:55 UTC (8 minutes ago) Instrument Flight Rules
Wind Visibility Clouds
190° at 3 knots 7 miles
  • Broken at 900' AGL
Temperatures Readings
Current 28°C / 82°F
Dewpoint 25°C / 77°F
Humidity 84%
Altimeter 29.96" Hg
Pressure 1015 hPa
Elevation 46
METAR K6R3 211755Z AUTO 19003KT 7SM BKN009 28/25 A2996 RMK AO2 LTG DSNT S 60019 T02800246 10281 20236
Observed Flight Rules
Jun-21 @ 17:55 UTC
(8 minutes ago)
IFR
Wind Visibility
190° at 3 knots 7 miles
Clouds
  • Broken at 900' AGL
Temperature Dewpoint
28°C / 82°F 25°C / 77°F
Humidity Altimeter Pressure
84% 29.96" Hg 1015 hPa